Time;durP1;ratioP1;P1;durP2;ratioP2;P2;SDS_P1;SDS_P2;PMS_P1;PMS_P2;Temp;Humidity;BMP_temperature;BMP_pressure;BME280_temperature;BME280_humidity;BME280_pressure;Samples;Min_cycle;Max_cycle;Signal;HPM_P1;HPM_P2
2023/04/17 00:00:29;;;;;;;36.97;19.42;;;;;;;7.93;100.00;102480.38;5001568;28;20038;-87
2023/04/17 00:02:55;;;;;;;42.83;20.95;;;;;;;7.89;100.00;102474.16;4995058;28;20034;-87
2023/04/17 00:05:21;;;;;;;40.70;21.67;;;;;;;7.96;100.00;102473.94;4977324;28;20046;-90
2023/04/17 00:07:47;;;;;;;45.00;20.10;;;;;;;7.96;100.00;102479.34;4994983;28;20566;-89
2023/04/17 00:10:14;;;;;;;34.10;18.23;;;;;;;7.97;100.00;102481.13;4994169;28;20467;-88
2023/04/17 00:12:39;;;;;;;41.70;20.73;;;;;;;7.96;100.00;102479.34;4992540;28;20204;-90
2023/04/17 00:15:06;;;;;;;42.67;21.23;;;;;;;7.89;100.00;102473.28;4983594;28;20161;-88
2023/04/17 00:17:31;;;;;;;39.53;19.63;;;;;;;7.88;100.00;102476.91;4973492;28;20620;-90
2023/04/17 00:19:57;;;;;;;39.17;19.83;;;;;;;7.86;100.00;102473.38;4974197;28;20069;-88
2023/04/17 00:22:22;;;;;;;41.05;20.20;;;;;;;7.86;100.00;102468.84;4990173;28;20038;-86
2023/04/17 00:24:47;;;;;;;38.22;20.30;;;;;;;7.88;100.00;102466.97;4978692;28;20052;-88
2023/04/17 00:27:13;;;;;;;38.65;19.80;;;;;;;7.89;100.00;102470.56;5008780;28;20049;-88
2023/04/17 00:29:38;;;;;;;36.65;18.80;;;;;;;7.84;100.00;102459.00;4993355;28;20053;-88
2023/04/17 00:32:04;;;;;;;37.85;18.02;;;;;;;7.81;100.00;102461.81;4990641;28;20049;-88
2023/04/17 00:34:29;;;;;;;39.55;18.65;;;;;;;7.76;100.00;102445.72;4990435;28;20062;-89
2023/04/17 00:36:55;;;;;;;37.38;18.73;;;;;;;7.77;100.00;102452.91;4991243;28;20026;-89
2023/04/17 00:39:20;;;;;;;36.17;18.42;;;;;;;7.77;100.00;102455.59;4973200;28;20038;-90
2023/04/17 00:41:46;;;;;;;37.28;19.23;;;;;;;7.70;100.00;102453.19;4991154;28;20429;-89
2023/04/17 00:44:11;;;;;;;38.22;19.35;;;;;;;7.65;100.00;102456.94;4992043;28;20034;-90
2023/04/17 00:46:37;;;;;;;37.42;18.48;;;;;;;7.61;100.00;102447.16;4989179;28;20125;-87
2023/04/17 00:49:03;;;;;;;34.13;18.50;;;;;;;7.60;100.00;102450.78;4990183;28;20022;-88
2023/04/17 00:51:28;;;;;;;40.40;19.15;;;;;;;7.60;100.00;102447.16;4987135;28;20045;-88
2023/04/17 00:53:54;;;;;;;39.60;19.08;;;;;;;7.65;100.00;102450.63;5008592;28;20072;-89
2023/04/17 00:56:20;;;;;;;36.45;18.48;;;;;;;7.63;100.00;102450.66;5008497;28;20046;-90
2023/04/17 00:58:47;;;;;;;40.08;19.75;;;;;;;7.60;100.00;102444.47;4990194;28;20482;-89
2023/04/17 01:01:13;;;;;;;40.33;19.27;;;;;;;7.64;100.00;102451.56;4987860;28;20062;-88
2023/04/17 01:03:38;;;;;;;38.45;18.67;;;;;;;7.65;100.00;102454.22;4990318;28;20104;-90
2023/04/17 01:06:04;;;;;;;39.17;20.30;;;;;;;7.64;100.00;102443.41;5010373;28;20473;-90
2023/04/17 01:08:40;;;;;;;41.80;21.35;;;;;;;7.65;100.00;102448.81;5008704;28;20045;-90
2023/04/17 01:11:06;;;;;;;42.20;21.63;;;;;;;7.65;100.00;102445.22;4989763;28;20088;-90
2023/04/17 01:13:31;;;;;;;39.92;19.77;;;;;;;7.64;100.00;102440.72;4989369;28;20104;-88
2023/04/17 01:15:57;;;;;;;41.17;19.13;;;;;;;7.64;100.00;102451.56;4987734;28;20403;-88
2023/04/17 01:18:22;;;;;;;38.78;19.20;;;;;;;7.68;100.00;102453.22;4989537;28;20064;-87
2023/04/17 01:20:47;;;;;;;44.80;19.65;;;;;;;7.65;100.00;102447.94;4989725;28;20054;-86
2023/04/17 01:23:14;;;;;;;37.75;19.52;;;;;;;7.64;100.00;102444.31;4980947;28;20499;-89
2023/04/17 01:25:40;;;;;;;45.17;20.63;;;;;;;7.63;100.00;102452.50;4992508;28;20189;-89
2023/04/17 01:28:06;;;;;;;37.70;18.98;;;;;;;7.63;100.00;102457.91;4997609;28;20224;-90
2023/04/17 01:30:31;;;;;;;37.20;18.42;;;;;;;7.63;100.00;102452.50;4980812;28;20165;-89
2023/04/17 01:33:03;;;;;;;39.53;19.13;;;;;;;7.62;100.00;102450.72;4973107;28;20038;-87
2023/04/17 01:35:29;;;;;;;38.33;19.90;;;;;;;7.65;100.00;102454.22;4984054;28;20386;-88
2023/04/17 01:37:54;;;;;;;38.50;18.48;;;;;;;7.65;100.00;102458.75;5008507;28;20068;-86
2023/04/17 01:40:20;;;;;;;40.22;19.60;;;;;;;7.67;100.00;102465.88;5008025;28;20454;-88
2023/04/17 01:42:46;;;;;;;40.60;19.50;;;;;;;7.63;100.00;102455.19;4980026;28;20034;-89
2023/04/17 01:45:15;;;;;;;34.85;17.67;;;;;;;7.63;100.00;102460.63;4976608;28;20031;-87
2023/04/17 01:47:40;;;;;;;35.50;17.98;;;;;;;7.68;100.00;102462.22;4985375;28;20035;-86
2023/04/17 01:50:07;;;;;;;40.28;18.60;;;;;;;7.71;100.00;102460.38;4988848;28;20474;-87
2023/04/17 01:52:34;;;;;;;36.40;18.63;;;;;;;7.69;100.00;102457.69;4989423;28;20270;-89
2023/04/17 01:55:00;;;;;;;34.08;18.70;;;;;;;7.64;100.00;102454.25;4988503;28;20053;-87
2023/04/17 01:57:26;;;;;;;35.58;18.17;;;;;;;7.63;100.00;102453.38;4993520;28;20054;-89
2023/04/17 01:59:52;;;;;;;44.10;19.23;;;;;;;7.62;100.00;102461.56;4971572;28;20125;-88
2023/04/17 02:02:17;;;;;;;36.25;19.27;;;;;;;7.65;100.00;102470.47;4987711;28;20453;-88
2023/04/17 02:04:42;;;;;;;38.53;18.02;;;;;;;7.63;100.00;102463.34;5005263;28;20041;-89
2023/04/17 02:07:08;;;;;;;36.33;18.10;;;;;;;7.60;100.00;102458.00;4988686;28;20038;-89
2023/04/17 02:09:33;;;;;;;34.45;18.85;;;;;;;7.61;100.00;102470.63;4987994;28;20034;-90
2023/04/17 02:11:59;;;;;;;33.15;17.17;;;;;;;7.56;100.00;102468.09;4987476;28;20092;-91
2023/04/17 02:14:24;;;;;;;35.03;16.38;;;;;;;7.54;100.00;102463.63;4988958;28;20697;-89
2023/04/17 02:16:50;;;;;;;41.10;18.38;;;;;;;7.45;100.00;102454.00;4971434;28;20069;-88
2023/04/17 02:19:15;;;;;;;35.00;18.13;;;;;;;7.52;100.00;102462.81;4972377;28;20092;-88
2023/04/17 02:21:41;;;;;;;35.55;17.58;;;;;;;7.54;100.00;102466.34;5000080;28;20103;-89
2023/04/17 02:24:06;;;;;;;37.10;17.13;;;;;;;7.53;100.00;102467.28;5008338;28;20040;-91
2023/04/17 02:26:31;;;;;;;35.22;17.52;;;;;;;7.47;100.00;102454.84;5005982;28;20041;-89
2023/04/17 02:28:57;;;;;;;38.03;18.17;;;;;;;7.51;100.00;102464.66;4986874;28;20042;-90
2023/04/17 02:31:23;;;;;;;40.92;18.77;;;;;;;7.52;100.00;102465.53;4986801;28;20046;-89
2023/04/17 02:33:48;;;;;;;36.58;18.42;;;;;;;7.51;100.00;102472.78;4971480;28;20204;-88
2023/04/17 02:36:15;;;;;;;38.35;18.15;;;;;;;7.48;100.00;102466.56;4986690;28;20037;-90
2023/04/17 02:38:41;;;;;;;38.67;19.52;;;;;;;7.47;100.00;102462.09;4988630;28;20030;-90
2023/04/17 02:41:07;;;;;;;39.97;19.02;;;;;;;7.46;100.00;102463.00;4987885;28;20049;-89
2023/04/17 02:43:33;;;;;;;42.65;20.08;;;;;;;7.43;100.00;102461.31;4971649;28;20067;-89
2023/04/17 02:45:58;;;;;;;42.20;19.25;;;;;;;7.40;100.00;102456.84;4985772;28;20046;-88
2023/04/17 02:48:25;;;;;;;42.15;19.13;;;;;;;7.41;100.00;102461.38;4988264;28;20034;-88
2023/04/17 02:50:51;;;;;;;46.45;19.75;;;;;;;7.43;100.00;102468.53;5001588;28;20060;-88
2023/04/17 02:53:18;;;;;;;43.58;20.23;;;;;;;7.38;100.00;102464.16;4986245;28;20026;-92
2023/04/17 02:55:44;;;;;;;46.20;20.85;;;;;;;7.36;100.00;102463.31;4971349;28;20058;-89
2023/04/17 02:58:10;;;;;;;42.72;19.42;;;;;;;7.39;100.00;102467.75;4970985;28;20034;-89
2023/04/17 03:00:37;;;;;;;46.00;22.17;;;;;;;7.39;100.00;102467.75;4995434;28;20248;-90
2023/04/17 03:03:03;;;;;;;40.90;20.02;;;;;;;7.38;100.00;102464.16;4991115;28;20482;-88
2023/04/17 03:05:29;;;;;;;41.85;18.77;;;;;;;7.38;100.00;102469.56;5007128;28;20018;-89
2023/04/17 03:07:58;;;;;;;51.15;20.58;;;;;;;7.36;100.00;102471.44;5006049;28;20034;-90
2023/04/17 03:10:25;;;;;;;43.00;19.77;;;;;;;7.33;100.00;102473.38;5007380;28;20080;-90
2023/04/17 03:12:50;;;;;;;38.55;19.10;;;;;;;7.33;100.00;102466.13;4972911;28;20473;-89
2023/04/17 03:15:16;;;;;;;40.28;20.23;;;;;;;7.35;100.00;102468.78;5003828;28;20036;-88
2023/04/17 03:17:43;;;;;;;46.72;20.88;;;;;;;7.28;100.00;102461.81;4986978;28;20022;-89
2023/04/17 03:20:08;;;;;;;43.88;20.25;;;;;;;7.36;100.00;102473.25;4987304;28;20041;-87
2023/04/17 03:22:35;;;;;;;43.63;20.85;;;;;;;7.38;100.00;102479.53;4970612;28;20039;-89
2023/04/17 03:25:01;;;;;;;43.40;19.92;;;;;;;7.37;100.00;102475.94;4987392;28;20030;-89
2023/04/17 03:27:34;;;;;;;40.40;19.55;;;;;;;7.34;100.00;102470.63;4971374;28;20038;-90
2023/04/17 03:30:00;;;;;;;45.13;19.33;;;;;;;7.36;100.00;102475.97;4989663;28;20559;-88
2023/04/17 03:32:25;;;;;;;37.33;18.00;;;;;;;7.33;100.00;102474.25;4989378;28;20038;-88
2023/04/17 03:34:51;;;;;;;44.20;21.13;;;;;;;7.32;100.00;102463.47;5006397;28;20469;-89
2023/04/17 03:37:16;;;;;;;45.25;18.92;;;;;;;7.31;100.00;102468.00;5007377;28;20080;-88
2023/04/17 03:39:43;;;;;;;40.08;19.77;;;;;;;7.29;100.00;102469.88;4990446;28;20104;-88
2023/04/17 03:42:13;;;;;;;45.08;21.17;;;;;;;7.27;100.00;102465.44;5000203;28;20405;-90
2023/04/17 03:44:38;;;;;;;40.72;20.20;;;;;;;7.28;100.00;102472.66;5002271;28;20038;-89
2023/04/17 03:47:04;;;;;;;44.20;20.08;;;;;;;7.25;100.00;102468.19;5007070;28;20461;-89
2023/04/17 03:49:29;;;;;;;40.55;19.40;;;;;;;7.22;100.00;102467.41;4992745;28;20104;-87
2023/04/17 03:51:56;;;;;;;49.70;20.40;;;;;;;7.24;100.00;102470.97;5010632;28;20553;-88
2023/04/17 03:54:21;;;;;;;38.70;19.38;;;;;;;7.25;100.00;102468.19;4993934;28;20040;-88
2023/04/17 03:56:48;;;;;;;43.13;21.17;;;;;;;7.16;100.00;102474.78;4990887;28;20553;-87
2023/04/17 03:59:14;;;;;;;46.00;21.00;;;;;;;7.18;100.00;102473.84;4999326;28;20116;-90
2023/04/17 04:01:41;;;;;;;47.20;23.13;;;;;;;7.13;100.00;102474.91;4994956;28;20037;-89
2023/04/17 04:04:19;;;;;;;44.30;20.42;;;;;;;7.10;100.00;102469.59;4989996;28;20034;-88
2023/04/17 04:06:46;;;;;;;40.67;19.45;;;;;;;7.09;100.00;102470.53;4989669;28;20461;-88
2023/04/17 04:09:14;;;;;;;49.25;21.42;;;;;;;7.11;100.00;102471.34;4974890;28;20494;-89
2023/04/17 04:11:40;;;;;;;39.58;18.45;;;;;;;7.09;100.00;102458.81;4972675;28;20042;-86
2023/04/17 04:14:06;;;;;;;53.08;21.90;;;;;;;7.13;100.00;102474.00;4996740;28;20474;-89
2023/04/17 04:16:31;;;;;;;43.75;21.38;;;;;;;7.08;100.00;102460.63;4983826;28;20399;-89
2023/04/17 04:19:05;;;;;;;47.53;21.98;;;;;;;7.10;100.00;102463.28;4985530;28;20122;-90
2023/04/17 04:21:31;;;;;;;50.00;22.25;;;;;;;7.04;100.00;102461.69;4988882;28;20122;-88
2023/04/17 04:23:56;;;;;;;45.88;19.52;;;;;;;7.09;100.00;102469.66;4990250;28;20466;-88
2023/04/17 04:26:23;;;;;;;44.95;19.90;;;;;;;7.05;100.00;102474.25;4989780;28;20034;-89
2023/04/17 04:28:52;;;;;;;47.83;21.38;;;;;;;7.04;100.00;102471.59;4999454;28;20341;-89
2023/04/17 04:31:39;;;;;;;41.55;19.52;;;;;;;7.06;100.00;102475.16;4993005;28;20494;-87
2023/04/17 04:34:06;;;;;;;48.47;20.75;;;;;;;7.08;100.00;102484.97;4993480;28;20512;-86
2023/04/17 04:36:34;;;;;;;47.20;19.77;;;;;;;7.07;100.00;102476.91;4978636;28;20204;-89
2023/04/17 04:39:20;;;;;;;52.97;21.25;;;;;;;7.08;100.00;102481.38;4976306;28;20038;-90
2023/04/17 04:41:46;;;;;;;44.72;21.45;;;;;;;7.08;100.00;102490.38;4972583;28;20034;-89
2023/04/17 04:44:13;;;;;;;40.50;18.88;;;;;;;7.08;100.00;102494.91;4998405;28;20376;-87
2023/04/17 04:46:40;;;;;;;39.92;19.00;;;;;;;7.05;100.00;102489.63;5007578;28;20034;-88
2023/04/17 04:49:06;;;;;;;45.35;21.27;;;;;;;7.05;100.00;102498.63;4992743;28;20486;-89
2023/04/17 04:51:32;;;;;;;46.17;22.25;;;;;;;7.04;100.00;102491.44;5009249;28;20044;-88
2023/04/17 04:53:58;;;;;;;44.47;21.00;;;;;;;7.04;100.00;102494.16;5008567;28;20123;-88
2023/04/17 04:56:24;;;;;;;48.13;22.60;;;;;;;7.03;100.00;102494.19;5005444;28;20149;-88
2023/04/17 04:58:50;;;;;;;47.00;21.80;;;;;;;7.02;100.00;102497.81;4996869;28;20065;-90
2023/04/17 05:01:16;;;;;;;45.80;21.27;;;;;;;6.99;100.00;102501.50;4987688;28;20034;-88
2023/04/17 05:03:44;;;;;;;46.70;22.00;;;;;;;7.02;100.00;102495.13;4973552;28;20167;-89
2023/04/17 05:06:13;;;;;;;46.40;20.42;;;;;;;7.01;100.00;102499.66;5008361;28;20064;-88
2023/04/17 05:08:44;;;;;;;43.65;21.65;;;;;;;6.99;100.00;102493.38;5008794;28;20121;-86
2023/04/17 05:11:13;;;;;;;54.95;22.33;;;;;;;6.99;100.00;102504.19;4993773;28;20187;-88
2023/04/17 05:13:38;;;;;;;48.72;22.38;;;;;;;6.97;100.00;102503.38;4984751;28;20116;-87
2023/04/17 05:16:07;;;;;;;45.75;21.60;;;;;;;7.03;100.00;102505.88;4999340;28;20604;-88
2023/04/17 05:18:33;;;;;;;50.22;21.67;;;;;;;7.04;100.00;102512.19;4991637;28;20193;-87
2023/04/17 05:20:58;;;;;;;51.70;23.00;;;;;;;7.05;100.00;102503.16;5006301;28;20489;-89
2023/04/17 05:23:27;;;;;;;45.28;20.38;;;;;;;7.07;100.00;102523.81;4988756;28;20034;-89
2023/04/17 05:25:52;;;;;;;48.08;23.52;;;;;;;7.06;100.00;102521.16;4988846;28;20135;-87
2023/04/17 05:28:17;;;;;;;51.58;21.80;;;;;;;6.95;100.00;102499.84;4999157;28;20037;-89
2023/04/17 05:30:44;;;;;;;49.70;24.38;;;;;;;7.04;100.00;102513.09;4979844;28;20040;-88
2023/04/17 05:33:15;;;;;;;50.03;23.98;;;;;;;7.08;100.00;102500.31;4989992;28;20125;-87
2023/04/17 05:35:50;;;;;;;52.60;23.05;;;;;;;7.07;100.00;102512.09;4973293;28;20042;-90
2023/04/17 05:38:16;;;;;;;52.13;25.20;;;;;;;7.05;100.00;102517.56;4988498;28;20054;-89
2023/04/17 05:40:41;;;;;;;55.47;23.00;;;;;;;7.09;100.00;102518.34;4987970;28;20140;-87
2023/04/17 05:43:08;;;;;;;53.35;24.35;;;;;;;7.13;100.00;102525.41;4970643;28;20441;-89
2023/04/17 05:45:35;;;;;;;51.55;23.73;;;;;;;7.10;100.00;102523.72;4995102;28;20072;-89
2023/04/17 05:48:00;;;;;;;51.17;23.60;;;;;;;7.07;100.00;102515.69;5007542;28;20159;-87
2023/04/17 05:50:25;;;;;;;61.22;25.98;;;;;;;7.11;100.00;102519.19;5009299;28;20038;-87
2023/04/17 05:52:51;;;;;;;51.58;22.25;;;;;;;7.15;100.00;102529.00;4992268;28;20091;-88
2023/04/17 05:55:18;;;;;;;52.53;22.35;;;;;;;7.15;100.00;102527.16;4989250;28;20050;-87
2023/04/17 05:57:45;;;;;;;52.90;23.23;;;;;;;7.15;100.00;102529.00;4972020;28;20061;-87
2023/04/17 06:00:12;;;;;;;54.97;24.38;;;;;;;7.19;100.00;102537.91;4987037;28;20026;-88
2023/04/17 06:02:41;;;;;;;55.08;23.88;;;;;;;7.22;100.00;102529.66;4988183;28;20424;-87
2023/04/17 06:05:09;;;;;;;51.90;23.90;;;;;;;7.19;100.00;102527.97;4981545;28;20026;-88
2023/04/17 06:07:37;;;;;;;45.08;22.42;;;;;;;7.19;100.00;102527.06;4971030;28;20049;-87
2023/04/17 06:10:05;;;;;;;48.38;23.77;;;;;;;7.24;100.00;102544.06;4981113;28;20034;-85
2023/04/17 06:12:31;;;;;;;48.55;24.52;;;;;;;7.22;100.00;102538.66;4985903;28;20482;-90
2023/04/17 06:14:56;;;;;;;55.20;24.35;;;;;;;7.18;100.00;102533.41;4995710;28;20508;-88
2023/04/17 06:17:22;;;;;;;51.80;23.55;;;;;;;7.22;100.00;102545.91;4981877;28;20038;-85
2023/04/17 06:19:48;;;;;;;52.95;24.50;;;;;;;7.22;100.00;102546.78;4986561;28;20418;-86
2023/04/17 06:22:13;;;;;;;55.65;25.27;;;;;;;7.23;100.00;102555.78;4987492;28;20037;-87
2023/04/17 06:24:38;;;;;;;51.03;22.60;;;;;;;7.23;100.00;102558.50;4988098;28;20482;-87
2023/04/17 06:27:04;;;;;;;54.92;24.08;;;;;;;7.23;100.00;102553.09;4970452;28;20058;-87
2023/04/17 06:29:30;;;;;;;52.83;23.60;;;;;;;7.20;100.00;102556.78;4992636;28;20387;-88
2023/04/17 06:31:55;;;;;;;46.85;22.45;;;;;;;7.22;100.00;102562.16;4993622;28;20035;-86
2023/04/17 06:34:21;;;;;;;50.40;23.98;;;;;;;7.16;100.00;102556.00;4970327;28;20038;-86
2023/04/17 06:36:47;;;;;;;50.38;23.25;;;;;;;7.14;100.00;102552.47;4970095;28;20045;-86
2023/04/17 06:39:15;;;;;;;57.65;24.00;;;;;;;7.16;100.00;102561.41;4986996;28;20034;-87
2023/04/17 06:41:41;;;;;;;55.63;24.65;;;;;;;7.22;100.00;102568.44;4970619;28;20056;-89
2023/04/17 06:44:06;;;;;;;56.63;23.25;;;;;;;7.25;100.00;102565.66;4983330;28;20042;-87
2023/04/17 06:46:52;;;;;;;53.45;23.02;;;;;;;7.22;100.00;102562.16;4986943;28;20030;-86
2023/04/17 06:49:18;;;;;;;49.38;22.92;;;;;;;7.24;100.00;102568.41;4988632;28;20044;-89
2023/04/17 06:51:44;;;;;;;56.10;24.60;;;;;;;7.21;100.00;102558.56;4973082;28;20046;-84
2023/04/17 06:54:10;;;;;;;51.70;24.20;;;;;;;7.27;100.00;102569.19;4985483;28;20034;-87
2023/04/17 06:56:36;;;;;;;51.20;22.80;;;;;;;7.26;100.00;102564.72;4985344;28;20046;-88
2023/04/17 06:59:01;;;;;;;51.55;23.95;;;;;;;7.25;100.00;102562.06;4973844;28;20045;-90
2023/04/17 07:01:28;;;;;;;55.33;23.23;;;;;;;7.28;100.00;102567.41;4973608;28;20061;-87
2023/04/17 07:03:53;;;;;;;56.88;24.27;;;;;;;7.33;100.00;102582.56;4985891;28;20034;-88
2023/04/17 07:06:18;;;;;;;48.03;23.52;;;;;;;7.34;100.00;102580.72;4998775;28;20048;-86
2023/04/17 07:08:44;;;;;;;51.67;23.58;;;;;;;7.35;100.00;102577.09;5006227;28;20498;-88
2023/04/17 07:11:09;;;;;;;52.45;23.27;;;;;;;7.37;100.00;102583.34;4996566;28;20038;-86
2023/04/17 07:13:35;;;;;;;53.47;26.00;;;;;;;7.39;100.00;102585.06;4994139;28;20037;-87
2023/04/17 07:16:02;;;;;;;52.10;22.63;;;;;;;7.38;100.00;102583.28;4996841;28;20057;-87
2023/04/17 07:18:30;;;;;;;55.28;24.27;;;;;;;7.44;100.00;102590.34;4991311;28;20514;-89
2023/04/17 07:20:55;;;;;;;58.00;25.40;;;;;;;7.48;100.00;102599.25;4973659;28;20018;-88
2023/04/17 07:23:22;;;;;;;50.33;24.92;;;;;;;7.54;100.00;102588.22;5011563;28;20458;-86
2023/04/17 07:25:47;;;;;;;52.00;24.27;;;;;;;7.62;100.00;102611.41;5010417;28;20508;-87
2023/04/17 07:28:13;;;;;;;50.53;24.83;;;;;;;7.63;100.00;102596.06;4980081;28;20054;-87
2023/04/17 07:30:41;;;;;;;49.95;23.38;;;;;;;7.69;100.00;102598.56;4997210;28;20034;-87
2023/04/17 07:33:06;;;;;;;55.72;23.50;;;;;;;7.73;100.00;102604.75;5011924;28;20026;-87
2023/04/17 07:35:32;;;;;;;56.40;23.92;;;;;;;7.76;100.00;102599.25;5010388;28;20073;-87
2023/04/17 07:37:59;;;;;;;53.55;24.60;;;;;;;7.72;100.00;102601.19;5010527;28;20400;-87
2023/04/17 07:40:25;;;;;;;57.30;25.30;;;;;;;7.73;100.00;102604.75;5009836;28;20058;-86
2023/04/17 07:42:51;;;;;;;48.50;24.25;;;;;;;7.68;100.00;102594.06;5000991;28;20061;-87
2023/04/17 07:45:17;;;;;;;51.50;24.25;;;;;;;7.76;100.00;102605.56;4989816;28;20027;-87
2023/04/17 07:47:42;;;;;;;51.13;24.52;;;;;;;7.75;100.00;102608.34;4990101;28;20042;-86
2023/04/17 07:50:08;;;;;;;54.78;25.15;;;;;;;7.87;100.00;102614.22;4990577;28;20382;-88
2023/04/17 07:52:33;;;;;;;52.20;25.42;;;;;;;7.90;100.00;102618.66;4990485;28;20491;-87
2023/04/17 07:54:59;;;;;;;55.70;24.75;;;;;;;7.88;100.00;102613.31;4991289;28;20023;-86
2023/04/17 07:57:26;;;;;;;48.33;23.38;;;;;;;7.92;100.00;102606.81;4988604;28;20042;-86
2023/04/17 07:59:52;;;;;;;48.63;24.23;;;;;;;8.01;100.00;102615.59;4988617;28;20040;-88
2023/04/17 08:02:18;;;;;;;50.65;23.30;;;;;;;7.98;100.00;102613.88;4978914;28;20048;-89
2023/04/17 08:04:47;;;;;;;52.08;24.30;;;;;;;8.02;100.00;102615.56;4993572;28;20121;-88
2023/04/17 08:07:13;;;;;;;43.55;22.33;;;;;;;8.08;100.00;102612.63;5010045;28;20069;-86
2023/04/17 08:09:38;;;;;;;43.35;21.10;;;;;;;8.24;100.00;102615.69;5007682;28;20053;-87
2023/04/17 08:12:05;;;;;;;51.30;23.05;;;;;;;8.36;100.00;102611.69;4998606;28;20398;-89
2023/04/17 08:14:30;;;;;;;48.55;22.17;;;;;;;8.46;100.00;102626.72;5000742;28;20036;-87
2023/04/17 08:16:56;;;;;;;39.55;21.40;;;;;;;8.45;100.00;102624.97;5005597;28;20034;-85
2023/04/17 08:19:21;;;;;;;39.85;20.17;;;;;;;8.44;99.73;102617.78;5009226;28;20517;-87
2023/04/17 08:21:47;;;;;;;38.70;19.48;;;;;;;8.48;98.94;102613.97;5000765;28;20034;-89
2023/04/17 08:24:13;;;;;;;41.10;21.98;;;;;;;8.54;99.78;102621.03;4989720;28;20451;-87
2023/04/17 08:26:38;;;;;;;44.60;23.67;;;;;;;8.62;98.52;102625.22;4990165;28;20038;-90
2023/04/17 08:29:04;;;;;;;43.55;21.52;;;;;;;8.64;97.12;102627.91;4990666;28;20042;-86
2023/04/17 08:31:30;;;;;;;41.55;19.95;;;;;;;8.66;97.28;102620.59;4988580;28;20041;-88
2023/04/17 08:33:59;;;;;;;38.58;19.55;;;;;;;8.71;96.66;102626.72;4974509;28;20120;-87
2023/04/17 08:36:24;;;;;;;48.22;24.30;;;;;;;8.79;96.22;102613.78;4993535;28;20029;-88
2023/04/17 08:38:51;;;;;;;34.22;19.10;;;;;;;8.91;95.34;102626.91;5008707;28;20033;-85
2023/04/17 08:41:24;;;;;;;39.75;20.35;;;;;;;9.03;95.94;102621.94;4992275;28;20870;-87
2023/04/17 08:43:49;;;;;;;;;;;;;;;9.24;96.53;102623.00;4998209;28;20041;-86
2023/04/17 08:46:17;;;;;;;42.65;22.08;;;;;;;9.26;95.14;102616.53;4994811;28;19960;-85
2023/04/17 08:48:43;;;;;;;35.22;19.55;;;;;;;9.28;93.42;102628.25;4989509;28;20034;-84
2023/04/17 08:51:08;;;;;;;39.53;20.40;;;;;;;9.19;93.99;102615.03;4989682;28;20105;-84
2023/04/17 08:53:34;;;;;;;44.83;21.00;;;;;;;9.25;93.73;102627.47;5005152;28;20036;-84
2023/04/17 08:56:04;;;;;;;44.53;23.00;;;;;;;9.29;95.06;102621.84;4988816;28;20054;-84
2023/04/17 08:58:33;;;;;;;38.92;20.52;;;;;;;9.30;93.49;102620.03;4972385;28;20100;-88
2023/04/17 09:01:10;;;;;;;40.88;20.70;;;;;;;9.30;93.51;102630.88;4986642;28;20521;-86
2023/04/17 09:03:40;;;;;;;41.08;20.67;;;;;;;9.29;93.89;102624.56;4989599;28;20034;-85
2023/04/17 09:06:07;;;;;;;40.80;21.95;;;;;;;9.35;92.80;102629.75;4989302;28;20038;-88
2023/04/17 09:08:33;;;;;;;37.35;21.15;;;;;;;9.38;92.58;102621.50;4972416;28;20120;-88
2023/04/17 09:10:58;;;;;;;41.20;21.23;;;;;;;9.40;93.79;102624.16;4989623;28;20026;-86
2023/04/17 09:13:24;;;;;;;38.70;20.67;;;;;;;9.43;93.27;102624.94;4988506;28;20121;-84
2023/04/17 09:16:03;;;;;;;37.28;20.67;;;;;;;9.45;93.01;102624.84;4987754;28;20034;-86
2023/04/17 09:18:30;;;;;;;42.28;20.80;;;;;;;9.52;93.61;102626.41;4972936;28;20034;-86
2023/04/17 09:20:58;;;;;;;39.97;21.83;;;;;;;9.63;93.30;102628.69;4964360;28;20068;-86
2023/04/17 09:23:24;;;;;;;42.50;22.35;;;;;;;9.78;93.06;102629.88;5006922;28;20335;-86
2023/04/17 09:26:12;;;;;;;40.60;20.85;;;;;;;9.95;92.54;102630.09;4991574;28;20037;-87
2023/04/17 09:28:39;;;;;;;38.53;21.17;;;;;;;10.05;90.36;102631.47;4991117;28;20034;-85
2023/04/17 09:31:05;;;;;;;40.17;21.48;;;;;;;10.21;89.21;102629.00;4985820;28;20064;-85
2023/04/17 09:33:30;;;;;;;36.38;21.15;;;;;;;10.41;89.17;102630.91;4988961;28;20371;-85
2023/04/17 09:36:20;;;;;;;47.47;23.13;;;;;;;10.64;90.67;102621.75;4988807;28;20042;-86
2023/04/17 09:38:45;;;;;;;37.45;20.67;;;;;;;10.73;87.73;102627.66;4976425;28;20158;-87
2023/04/17 09:41:25;;;;;;;36.75;20.90;;;;;;;10.88;89.03;102628.81;5007150;28;20108;-87
2023/04/17 09:43:53;;;;;;;38.88;21.25;;;;;;;11.06;86.89;102642.56;4989020;28;20045;-85
2023/04/17 09:46:40;;;;;;;39.63;21.63;;;;;;;11.12;86.03;102631.38;4999583;28;20034;-84
2023/04/17 09:49:17;;;;;;;40.38;21.75;;;;;;;11.34;85.30;102626.69;5007845;28;20172;-86
2023/04/17 09:51:44;;;;;;;41.30;21.73;;;;;;;11.60;84.33;102630.88;5004666;28;20091;-84
2023/04/17 09:54:10;;;;;;;39.45;22.13;;;;;;;11.63;82.37;102629.88;4988232;28;20035;-86
2023/04/17 09:56:36;;;;;;;36.33;21.02;;;;;;;11.57;81.02;102625.59;4989747;28;20057;-86
2023/04/17 09:59:04;;;;;;;38.88;20.42;;;;;;;11.77;81.49;102631.94;4995727;28;20042;-85
2023/04/17 10:01:33;;;;;;;34.55;19.60;;;;;;;11.73;78.86;102621.16;4991153;28;20517;-82
2023/04/17 10:04:00;;;;;;;38.08;21.35;;;;;;;11.81;81.65;102619.91;4988507;28;20506;-85
2023/04/17 10:06:26;;;;;;;36.35;20.40;;;;;;;11.98;80.48;102618.16;4989372;28;20593;-84
2023/04/17 10:08:53;;;;;;;36.88;20.25;;;;;;;12.20;77.54;102625.25;4970949;28;20054;-83
2023/04/17 10:11:20;;;;;;;36.15;20.75;;;;;;;12.35;75.29;102612.66;4986846;28;20125;-83
2023/04/17 10:13:51;;;;;;;32.63;19.40;;;;;;;12.49;78.64;102604.63;4983811;28;20213;-87
2023/04/17 10:16:17;;;;;;;37.33;22.08;;;;;;;12.68;75.26;102608.19;4981355;28;20044;-85
2023/04/17 10:18:43;;;;;;;36.92;21.08;;;;;;;12.73;73.22;102610.66;4989062;28;20023;-83
2023/04/17 10:21:24;;;;;;;38.53;20.00;;;;;;;12.66;75.40;102607.34;4986775;28;20042;-83
2023/04/17 10:23:49;;;;;;;34.22;20.73;;;;;;;12.50;74.45;102606.41;4970459;28;20104;-87
2023/04/17 10:26:23;;;;;;;34.88;18.85;;;;;;;12.55;74.64;102615.25;5003025;28;20728;-84
2023/04/17 10:28:53;;;;;;;36.53;19.02;;;;;;;12.47;73.51;102618.38;4981156;28;20034;-86
2023/04/17 10:31:19;;;;;;;38.22;21.25;;;;;;;12.59;72.98;102602.28;4983970;28;20482;-86
2023/04/17 10:33:53;;;;;;;35.60;21.00;;;;;;;12.72;75.41;102606.16;4985678;28;20061;-87
2023/04/17 10:36:36;;;;;;;39.95;20.27;;;;;;;12.94;73.97;102617.69;4986585;28;20534;-85
2023/04/17 10:39:15;;;;;;;37.78;19.52;;;;;;;12.89;72.41;102605.25;4995624;28;20040;-85
2023/04/17 10:42:03;;;;;;;31.02;19.08;;;;;;;13.23;74.94;102604.31;4967955;28;20043;-85
2023/04/17 10:44:43;;;;;;;37.08;20.77;;;;;;;13.54;71.82;102595.28;4983599;28;20470;-85
2023/04/17 10:47:09;;;;;;;30.08;17.88;;;;;;;13.50;69.88;102610.09;4984108;28;20043;-82
2023/04/17 10:49:55;;;;;;;36.08;19.13;;;;;;;13.22;70.36;102603.44;4966155;28;20049;-83
2023/04/17 10:52:39;;;;;;;33.17;18.63;;;;;;;13.11;71.63;102605.84;4967503;28;20152;-84
2023/04/17 10:55:14;;;;;;;28.45;17.33;;;;;;;13.15;69.12;102602.00;4986465;28;20073;-85
2023/04/17 10:57:51;;;;;;;34.60;18.15;;;;;;;13.48;70.48;102604.72;4983611;28;20508;-83
2023/04/17 11:00:17;;;;;;;32.60;18.55;;;;;;;13.66;66.68;102599.16;4972996;28;20339;-82
2023/04/17 11:02:49;;;;;;;35.28;19.40;;;;;;;13.87;70.25;102577.88;4989266;28;20041;-83
2023/04/17 11:05:19;;;;;;;31.20;19.13;;;;;;;14.06;67.27;102591.38;5006565;28;20034;-85
2023/04/17 11:07:49;;;;;;;34.95;18.17;;;;;;;13.93;65.49;102597.56;4988693;28;20043;-83
2023/04/17 11:10:17;;;;;;;31.80;18.35;;;;;;;13.72;65.30;102580.56;4984992;28;20034;-85